Terminal Aerodrome Forecast
Issued by NWS Pueblo, CO

Home | Current Version | Previous Version | Text Only | Print | Product List | Glossary On
Versions: 1 2 3 4 5 6 7 8 9 10 11 12 13 14 15 16 17 18 19 20 21 22 23 24 25 26 27 28 29 30 31 32 33 34 35
000
FTUS45 KPUB 261137
TAFPUB
TAF
KPUB 261137Z 2612/2712 VRB05KT P6SM FEW120 SCT160 SCT200
     FM261700 05009KT P6SM SCT090 BKN140
     FM262300 03012KT P6SM VCTS SCT080CB BKN140
     FM270300 01010KT P6SM SCT080 BKN150=

USA.gov is the U.S. government's official web portal to all federal, state and local government web resources and services.